sensor_id;sensor_type;location;lat;lon;timestamp;temperature;humidity
770;DHT22;368;48.698;9.116;2023-08-08T00:00:42;10.60;99.90
770;DHT22;368;48.698;9.116;2023-08-08T00:03:09;10.50;99.90
770;DHT22;368;48.698;9.116;2023-08-08T00:05:36;10.40;99.90
770;DHT22;368;48.698;9.116;2023-08-08T00:08:03;10.30;99.90
770;DHT22;368;48.698;9.116;2023-08-08T00:10:31;10.40;99.90
770;DHT22;368;48.698;9.116;2023-08-08T00:12:58;10.50;99.90
770;DHT22;368;48.698;9.116;2023-08-08T00:15:25;10.50;99.90
770;DHT22;368;48.698;9.116;2023-08-08T00:17:52;10.50;99.90
770;DHT22;368;48.698;9.116;2023-08-08T00:20:18;10.50;99.90
770;DHT22;368;48.698;9.116;2023-08-08T00:22:45;10.70;99.90
770;DHT22;368;48.698;9.116;2023-08-08T00:25:12;10.50;99.90
770;DHT22;368;48.698;9.116;2023-08-08T00:27:40;10.50;99.90
770;DHT22;368;48.698;9.116;2023-08-08T00:30:10;10.80;99.90
770;DHT22;368;48.698;9.116;2023-08-08T00:32:37;10.90;99.90
770;DHT22;368;48.698;9.116;2023-08-08T00:35:05;11.00;99.90
770;DHT22;368;48.698;9.116;2023-08-08T00:37:31;11.30;99.90
770;DHT22;368;48.698;9.116;2023-08-08T00:39:58;11.40;99.90
770;DHT22;368;48.698;9.116;2023-08-08T00:42:25;11.70;99.90
770;DHT22;368;48.698;9.116;2023-08-08T00:44:53;11.60;99.90
770;DHT22;368;48.698;9.116;2023-08-08T00:47:27;11.60;99.90
770;DHT22;368;48.698;9.116;2023-08-08T00:49:54;11.70;99.90
770;DHT22;368;48.698;9.116;2023-08-08T00:52:21;11.80;99.90
770;DHT22;368;48.698;9.116;2023-08-08T00:54:48;11.50;99.90
770;DHT22;368;48.698;9.116;2023-08-08T00:57:15;11.60;99.90
770;DHT22;368;48.698;9.116;2023-08-08T00:59:43;11.50;99.90
770;DHT22;368;48.698;9.116;2023-08-08T01:02:12;11.50;99.90
770;DHT22;368;48.698;9.116;2023-08-08T01:04:39;11.50;99.90
770;DHT22;368;48.698;9.116;2023-08-08T01:07:10;11.60;99.90
770;DHT22;368;48.698;9.116;2023-08-08T01:09:43;11.50;99.90
770;DHT22;368;48.698;9.116;2023-08-08T01:12:13;11.40;99.90
770;DHT22;368;48.698;9.116;2023-08-08T01:14:42;11.70;99.90
770;DHT22;368;48.698;9.116;2023-08-08T01:17:11;11.60;99.90
770;DHT22;368;48.698;9.116;2023-08-08T01:19:39;11.70;99.90
770;DHT22;368;48.698;9.116;2023-08-08T01:22:11;11.40;99.90
770;DHT22;368;48.698;9.116;2023-08-08T01:24:42;11.70;99.90
770;DHT22;368;48.698;9.116;2023-08-08T01:27:10;11.50;99.90
770;DHT22;368;48.698;9.116;2023-08-08T01:29:37;11.40;99.90
770;DHT22;368;48.698;9.116;2023-08-08T01:32:05;11.40;99.90
770;DHT22;368;48.698;9.116;2023-08-08T01:34:34;11.60;99.90
770;DHT22;368;48.698;9.116;2023-08-08T01:37:08;11.80;99.90
770;DHT22;368;48.698;9.116;2023-08-08T01:39:37;11.50;99.90
770;DHT22;368;48.698;9.116;2023-08-08T01:42:06;11.70;99.90
770;DHT22;368;48.698;9.116;2023-08-08T01:44:34;11.50;99.90
770;DHT22;368;48.698;9.116;2023-08-08T01:47:01;11.50;99.90
770;DHT22;368;48.698;9.116;2023-08-08T01:49:27;11.50;99.90
770;DHT22;368;48.698;9.116;2023-08-08T01:51:54;11.30;99.90
770;DHT22;368;48.698;9.116;2023-08-08T01:54:21;11.50;99.90
770;DHT22;368;48.698;9.116;2023-08-08T01:56:48;11.30;99.90
770;DHT22;368;48.698;9.116;2023-08-08T01:59:16;11.40;99.90
770;DHT22;368;48.698;9.116;2023-08-08T02:01:43;11.40;99.90
770;DHT22;368;48.698;9.116;2023-08-08T02:04:10;11.50;99.90
770;DHT22;368;48.698;9.116;2023-08-08T02:06:36;11.40;99.90
770;DHT22;368;48.698;9.116;2023-08-08T02:09:03;11.40;99.90
770;DHT22;368;48.698;9.116;2023-08-08T02:11:31;11.40;99.90
770;DHT22;368;48.698;9.116;2023-08-08T02:13:58;11.50;99.90
770;DHT22;368;48.698;9.116;2023-08-08T02:16:26;11.40;99.90
770;DHT22;368;48.698;9.116;2023-08-08T02:18:53;11.40;99.90
770;DHT22;368;48.698;9.116;2023-08-08T02:21:20;11.30;99.90
770;DHT22;368;48.698;9.116;2023-08-08T02:23:46;11.20;99.90
770;DHT22;368;48.698;9.116;2023-08-08T02:26:13;11.30;99.90
770;DHT22;368;48.698;9.116;2023-08-08T02:28:40;11.30;99.90
770;DHT22;368;48.698;9.116;2023-08-08T02:31:07;11.10;99.90
770;DHT22;368;48.698;9.116;2023-08-08T02:33:35;11.10;99.90
770;DHT22;368;48.698;9.116;2023-08-08T02:36:02;11.10;99.90
770;DHT22;368;48.698;9.116;2023-08-08T02:38:29;11.30;99.90
770;DHT22;368;48.698;9.116;2023-08-08T02:40:56;11.00;99.90
770;DHT22;368;48.698;9.116;2023-08-08T02:43:23;11.20;99.90
770;DHT22;368;48.698;9.116;2023-08-08T02:45:50;11.00;99.90
770;DHT22;368;48.698;9.116;2023-08-08T02:48:17;10.90;99.90
770;DHT22;368;48.698;9.116;2023-08-08T02:50:45;10.60;99.90
770;DHT22;368;48.698;9.116;2023-08-08T02:53:12;10.90;99.90
770;DHT22;368;48.698;9.116;2023-08-08T02:55:39;11.00;99.90
770;DHT22;368;48.698;9.116;2023-08-08T02:58:06;10.60;99.90
770;DHT22;368;48.698;9.116;2023-08-08T03:00:33;10.70;99.90
770;DHT22;368;48.698;9.116;2023-08-08T03:02:59;10.90;99.90
770;DHT22;368;48.698;9.116;2023-08-08T03:05:26;10.60;99.90
770;DHT22;368;48.698;9.116;2023-08-08T03:07:54;10.50;99.90
770;DHT22;368;48.698;9.116;2023-08-08T03:10:21;10.40;99.90
770;DHT22;368;48.698;9.116;2023-08-08T03:12:48;10.50;99.90
770;DHT22;368;48.698;9.116;2023-08-08T03:15:15;10.50;99.90
770;DHT22;368;48.698;9.116;2023-08-08T03:17:41;10.50;99.90
770;DHT22;368;48.698;9.116;2023-08-08T03:20:09;10.40;99.90
770;DHT22;368;48.698;9.116;2023-08-08T03:22:36;10.40;99.90
770;DHT22;368;48.698;9.116;2023-08-08T03:25:05;10.20;99.90
770;DHT22;368;48.698;9.116;2023-08-08T03:27:32;10.20;99.90
770;DHT22;368;48.698;9.116;2023-08-08T03:29:59;10.40;99.90
770;DHT22;368;48.698;9.116;2023-08-08T03:32:27;10.30;99.90
770;DHT22;368;48.698;9.116;2023-08-08T03:34:54;10.20;99.90
770;DHT22;368;48.698;9.116;2023-08-08T03:37:21;10.10;99.90
770;DHT22;368;48.698;9.116;2023-08-08T03:39:48;10.40;99.90
770;DHT22;368;48.698;9.116;2023-08-08T03:42:16;10.40;99.90
770;DHT22;368;48.698;9.116;2023-08-08T03:44:43;10.30;99.90
770;DHT22;368;48.698;9.116;2023-08-08T03:47:10;10.40;99.90
770;DHT22;368;48.698;9.116;2023-08-08T03:49:37;10.80;99.90
770;DHT22;368;48.698;9.116;2023-08-08T03:52:04;10.70;99.90
770;DHT22;368;48.698;9.116;2023-08-08T03:54:31;10.80;99.90
770;DHT22;368;48.698;9.116;2023-08-08T03:56:58;10.80;99.90
770;DHT22;368;48.698;9.116;2023-08-08T03:59:27;10.70;99.90
770;DHT22;368;48.698;9.116;2023-08-08T04:01:54;10.70;99.90
770;DHT22;368;48.698;9.116;2023-08-08T04:04:21;10.70;99.90
770;DHT22;368;48.698;9.116;2023-08-08T04:06:48;10.90;99.90
770;DHT22;368;48.698;9.116;2023-08-08T04:09:14;10.90;99.90
770;DHT22;368;48.698;9.116;2023-08-08T04:11:41;11.00;99.90
770;DHT22;368;48.698;9.116;2023-08-08T04:14:08;11.00;99.90
770;DHT22;368;48.698;9.116;2023-08-08T04:16:36;11.00;99.90
770;DHT22;368;48.698;9.116;2023-08-08T04:19:03;11.10;99.90
770;DHT22;368;48.698;9.116;2023-08-08T04:21:30;11.00;99.90
770;DHT22;368;48.698;9.116;2023-08-08T04:23:58;11.20;99.90
770;DHT22;368;48.698;9.116;2023-08-08T04:26:25;11.00;99.90
770;DHT22;368;48.698;9.116;2023-08-08T04:28:51;10.90;99.90
770;DHT22;368;48.698;9.116;2023-08-08T04:31:18;11.20;99.90
770;DHT22;368;48.698;9.116;2023-08-08T04:33:46;10.90;99.90
770;DHT22;368;48.698;9.116;2023-08-08T04:36:13;10.60;99.90
770;DHT22;368;48.698;9.116;2023-08-08T04:38:40;10.70;99.90
770;DHT22;368;48.698;9.116;2023-08-08T04:41:07;10.60;99.90
770;DHT22;368;48.698;9.116;2023-08-08T04:43:33;10.70;99.90
770;DHT22;368;48.698;9.116;2023-08-08T04:46:00;10.90;99.90
770;DHT22;368;48.698;9.116;2023-08-08T04:48:27;10.90;99.90
770;DHT22;368;48.698;9.116;2023-08-08T04:50:55;11.00;99.90
770;DHT22;368;48.698;9.116;2023-08-08T04:53:22;11.20;99.90
770;DHT22;368;48.698;9.116;2023-08-08T04:55:49;11.00;99.90
770;DHT22;368;48.698;9.116;2023-08-08T04:58:15;11.30;99.90
770;DHT22;368;48.698;9.116;2023-08-08T05:00:42;11.40;99.90
770;DHT22;368;48.698;9.116;2023-08-08T05:03:09;11.20;99.90
770;DHT22;368;48.698;9.116;2023-08-08T05:05:36;11.30;99.90
770;DHT22;368;48.698;9.116;2023-08-08T05:08:04;11.70;99.90
770;DHT22;368;48.698;9.116;2023-08-08T05:10:31;11.70;99.90
770;DHT22;368;48.698;9.116;2023-08-08T05:12:58;11.60;99.90
770;DHT22;368;48.698;9.116;2023-08-08T05:15:24;11.70;99.90
770;DHT22;368;48.698;9.116;2023-08-08T05:17:51;11.80;99.90
770;DHT22;368;48.698;9.116;2023-08-08T05:20:19;11.80;99.90
770;DHT22;368;48.698;9.116;2023-08-08T05:22:46;12.30;99.90
770;DHT22;368;48.698;9.116;2023-08-08T05:25:14;12.10;99.90
770;DHT22;368;48.698;9.116;2023-08-08T05:27:41;12.00;99.90
770;DHT22;368;48.698;9.116;2023-08-08T05:30:09;12.10;99.90
770;DHT22;368;48.698;9.116;2023-08-08T05:32:35;12.20;99.90
770;DHT22;368;48.698;9.116;2023-08-08T05:35:03;12.10;99.90
770;DHT22;368;48.698;9.116;2023-08-08T05:37:30;12.30;99.90
770;DHT22;368;48.698;9.116;2023-08-08T05:39:57;12.40;99.90
770;DHT22;368;48.698;9.116;2023-08-08T05:42:25;12.50;99.90
770;DHT22;368;48.698;9.116;2023-08-08T05:44:52;12.70;99.90
770;DHT22;368;48.698;9.116;2023-08-08T05:47:19;12.80;99.90
770;DHT22;368;48.698;9.116;2023-08-08T05:49:46;13.10;99.90
770;DHT22;368;48.698;9.116;2023-08-08T05:52:12;13.00;99.90
770;DHT22;368;48.698;9.116;2023-08-08T05:54:39;12.90;99.90
770;DHT22;368;48.698;9.116;2023-08-08T05:57:06;13.30;99.90
770;DHT22;368;48.698;9.116;2023-08-08T05:59:34;13.50;99.90
770;DHT22;368;48.698;9.116;2023-08-08T06:02:01;13.40;99.90
770;DHT22;368;48.698;9.116;2023-08-08T06:04:28;13.70;99.90
770;DHT22;368;48.698;9.116;2023-08-08T06:06:55;13.90;99.90
770;DHT22;368;48.698;9.116;2023-08-08T06:09:22;14.30;99.90
770;DHT22;368;48.698;9.116;2023-08-08T06:11:48;14.70;99.90
770;DHT22;368;48.698;9.116;2023-08-08T06:14:15;14.80;99.90
770;DHT22;368;48.698;9.116;2023-08-08T06:16:44;15.20;99.90
770;DHT22;368;48.698;9.116;2023-08-08T06:19:11;15.60;99.90
770;DHT22;368;48.698;9.116;2023-08-08T06:21:40;15.50;99.90
770;DHT22;368;48.698;9.116;2023-08-08T06:24:07;15.60;99.90
770;DHT22;368;48.698;9.116;2023-08-08T06:26:34;15.70;99.90
770;DHT22;368;48.698;9.116;2023-08-08T06:29:00;15.70;99.90
770;DHT22;368;48.698;9.116;2023-08-08T06:31:27;15.90;99.90
770;DHT22;368;48.698;9.116;2023-08-08T06:33:56;16.30;99.90
770;DHT22;368;48.698;9.116;2023-08-08T06:36:22;16.40;99.90
770;DHT22;368;48.698;9.116;2023-08-08T06:38:49;16.80;99.90
770;DHT22;368;48.698;9.116;2023-08-08T06:41:16;16.90;99.90
770;DHT22;368;48.698;9.116;2023-08-08T06:43:43;16.80;99.90
770;DHT22;368;48.698;9.116;2023-08-08T06:46:09;17.00;99.90
770;DHT22;368;48.698;9.116;2023-08-08T06:48:36;17.20;99.90
770;DHT22;368;48.698;9.116;2023-08-08T06:51:04;17.50;99.90
770;DHT22;368;48.698;9.116;2023-08-08T06:53:31;17.50;99.90
770;DHT22;368;48.698;9.116;2023-08-08T06:55:58;17.50;99.90
770;DHT22;368;48.698;9.116;2023-08-08T06:58:25;17.60;99.90
770;DHT22;368;48.698;9.116;2023-08-08T07:00:51;17.70;99.90
770;DHT22;368;48.698;9.116;2023-08-08T07:03:18;17.80;99.90
770;DHT22;368;48.698;9.116;2023-08-08T07:05:45;17.80;99.90
770;DHT22;368;48.698;9.116;2023-08-08T07:08:14;18.10;99.90
770;DHT22;368;48.698;9.116;2023-08-08T07:10:41;18.50;99.70
770;DHT22;368;48.698;9.116;2023-08-08T07:13:08;18.50;99.30
770;DHT22;368;48.698;9.116;2023-08-08T07:15:34;18.50;99.40
770;DHT22;368;48.698;9.116;2023-08-08T07:18:02;18.90;98.20
770;DHT22;368;48.698;9.116;2023-08-08T07:20:30;19.10;97.70
770;DHT22;368;48.698;9.116;2023-08-08T07:22:56;18.80;97.60
770;DHT22;368;48.698;9.116;2023-08-08T07:25:26;18.60;97.30
770;DHT22;368;48.698;9.116;2023-08-08T07:27:53;18.40;97.60
770;DHT22;368;48.698;9.116;2023-08-08T07:30:20;18.70;97.40
770;DHT22;368;48.698;9.116;2023-08-08T07:32:47;19.00;96.60
770;DHT22;368;48.698;9.116;2023-08-08T07:35:14;19.00;96.70
770;DHT22;368;48.698;9.116;2023-08-08T07:37:41;19.10;96.20
770;DHT22;368;48.698;9.116;2023-08-08T07:40:18;19.60;96.10
770;DHT22;368;48.698;9.116;2023-08-08T07:42:48;19.60;95.40
770;DHT22;368;48.698;9.116;2023-08-08T07:45:16;20.10;95.40
770;DHT22;368;48.698;9.116;2023-08-08T07:47:42;20.00;94.60
770;DHT22;368;48.698;9.116;2023-08-08T07:50:09;20.40;94.70
770;DHT22;368;48.698;9.116;2023-08-08T07:52:37;20.90;93.30
770;DHT22;368;48.698;9.116;2023-08-08T07:55:04;20.10;93.00
770;DHT22;368;48.698;9.116;2023-08-08T07:57:32;19.40;93.60
770;DHT22;368;48.698;9.116;2023-08-08T08:00:01;19.40;94.30
770;DHT22;368;48.698;9.116;2023-08-08T08:02:35;19.70;93.60
770;DHT22;368;48.698;9.116;2023-08-08T08:05:02;19.60;93.90
770;DHT22;368;48.698;9.116;2023-08-08T08:07:30;19.60;93.70
770;DHT22;368;48.698;9.116;2023-08-08T08:09:58;19.90;93.30
770;DHT22;368;48.698;9.116;2023-08-08T08:12:25;19.80;93.20
770;DHT22;368;48.698;9.116;2023-08-08T08:14:51;19.60;93.60
770;DHT22;368;48.698;9.116;2023-08-08T08:17:19;19.50;94.10
770;DHT22;368;48.698;9.116;2023-08-08T08:19:46;19.90;93.90
770;DHT22;368;48.698;9.116;2023-08-08T08:22:13;20.10;93.10
770;DHT22;368;48.698;9.116;2023-08-08T08:24:40;20.50;92.80
770;DHT22;368;48.698;9.116;2023-08-08T08:27:07;20.70;92.00
770;DHT22;368;48.698;9.116;2023-08-08T08:29:34;20.20;92.60
770;DHT22;368;48.698;9.116;2023-08-08T08:32:01;20.50;92.70
770;DHT22;368;48.698;9.116;2023-08-08T08:34:29;20.70;92.10
770;DHT22;368;48.698;9.116;2023-08-08T08:36:55;21.10;92.20
770;DHT22;368;48.698;9.116;2023-08-08T08:39:22;20.80;92.00
770;DHT22;368;48.698;9.116;2023-08-08T08:41:53;20.30;93.20
770;DHT22;368;48.698;9.116;2023-08-08T08:44:21;20.80;92.10
770;DHT22;368;48.698;9.116;2023-08-08T08:46:50;20.30;92.60
770;DHT22;368;48.698;9.116;2023-08-08T08:49:18;20.20;93.10
770;DHT22;368;48.698;9.116;2023-08-08T08:51:49;19.70;93.30
770;DHT22;368;48.698;9.116;2023-08-08T08:54:16;19.40;93.10
770;DHT22;368;48.698;9.116;2023-08-08T08:56:43;19.30;94.00
770;DHT22;368;48.698;9.116;2023-08-08T08:59:10;19.60;93.60
770;DHT22;368;48.698;9.116;2023-08-08T09:01:37;20.20;93.30
770;DHT22;368;48.698;9.116;2023-08-08T09:04:05;20.90;92.10
770;DHT22;368;48.698;9.116;2023-08-08T09:06:32;21.40;91.60
770;DHT22;368;48.698;9.116;2023-08-08T09:09:01;21.50;91.30
770;DHT22;368;48.698;9.116;2023-08-08T09:11:30;22.10;90.40
770;DHT22;368;48.698;9.116;2023-08-08T09:13:57;21.80;90.30
770;DHT22;368;48.698;9.116;2023-08-08T09:16:25;20.50;90.60
770;DHT22;368;48.698;9.116;2023-08-08T09:18:52;19.60;92.30
770;DHT22;368;48.698;9.116;2023-08-08T09:21:19;19.50;93.00
770;DHT22;368;48.698;9.116;2023-08-08T09:23:45;20.30;92.70
770;DHT22;368;48.698;9.116;2023-08-08T09:26:14;20.30;91.90
770;DHT22;368;48.698;9.116;2023-08-08T09:28:42;20.50;91.70
770;DHT22;368;48.698;9.116;2023-08-08T09:31:09;21.10;90.40
770;DHT22;368;48.698;9.116;2023-08-08T09:33:38;21.10;90.50
770;DHT22;368;48.698;9.116;2023-08-08T09:36:06;21.20;90.60
770;DHT22;368;48.698;9.116;2023-08-08T09:38:33;21.10;90.40
770;DHT22;368;48.698;9.116;2023-08-08T09:41:00;21.20;90.50
770;DHT22;368;48.698;9.116;2023-08-08T09:43:28;21.40;90.40
770;DHT22;368;48.698;9.116;2023-08-08T09:45:55;21.80;88.50
770;DHT22;368;48.698;9.116;2023-08-08T09:48:22;22.00;88.50
770;DHT22;368;48.698;9.116;2023-08-08T09:50:50;22.40;87.40
770;DHT22;368;48.698;9.116;2023-08-08T09:53:18;23.00;85.90
770;DHT22;368;48.698;9.116;2023-08-08T09:55:46;23.10;83.20
770;DHT22;368;48.698;9.116;2023-08-08T09:58:14;22.70;85.90
770;DHT22;368;48.698;9.116;2023-08-08T10:00:43;21.90;87.20
770;DHT22;368;48.698;9.116;2023-08-08T10:03:10;21.80;88.00
770;DHT22;368;48.698;9.116;2023-08-08T10:05:37;22.10;88.50
770;DHT22;368;48.698;9.116;2023-08-08T10:08:04;22.60;85.90
770;DHT22;368;48.698;9.116;2023-08-08T10:10:31;22.40;84.90
770;DHT22;368;48.698;9.116;2023-08-08T10:12:59;22.50;86.40
770;DHT22;368;48.698;9.116;2023-08-08T10:15:26;22.40;84.30
770;DHT22;368;48.698;9.116;2023-08-08T10:17:55;22.10;83.70
770;DHT22;368;48.698;9.116;2023-08-08T10:20:24;23.20;79.80
770;DHT22;368;48.698;9.116;2023-08-08T10:22:53;24.20;80.30
770;DHT22;368;48.698;9.116;2023-08-08T10:25:23;24.90;77.10
770;DHT22;368;48.698;9.116;2023-08-08T10:28:02;24.70;75.00
770;DHT22;368;48.698;9.116;2023-08-08T10:30:29;25.00;76.10
770;DHT22;368;48.698;9.116;2023-08-08T10:32:58;24.50;75.80
770;DHT22;368;48.698;9.116;2023-08-08T10:35:36;24.80;73.90
770;DHT22;368;48.698;9.116;2023-08-08T10:38:08;24.40;73.20
770;DHT22;368;48.698;9.116;2023-08-08T10:40:35;23.80;76.00
770;DHT22;368;48.698;9.116;2023-08-08T10:43:11;24.10;74.70
770;DHT22;368;48.698;9.116;2023-08-08T10:45:41;23.90;74.70
770;DHT22;368;48.698;9.116;2023-08-08T10:48:10;23.40;75.90
770;DHT22;368;48.698;9.116;2023-08-08T10:50:39;22.50;75.80
770;DHT22;368;48.698;9.116;2023-08-08T10:53:09;22.00;78.20
770;DHT22;368;48.698;9.116;2023-08-08T10:55:37;23.40;77.70
770;DHT22;368;48.698;9.116;2023-08-08T10:58:06;25.00;72.50
770;DHT22;368;48.698;9.116;2023-08-08T11:00:34;25.40;70.40
770;DHT22;368;48.698;9.116;2023-08-08T11:03:02;24.70;73.00
770;DHT22;368;48.698;9.116;2023-08-08T11:05:32;25.80;70.10
770;DHT22;368;48.698;9.116;2023-08-08T11:08:00;25.90;66.40
770;DHT22;368;48.698;9.116;2023-08-08T11:10:27;24.90;67.90
770;DHT22;368;48.698;9.116;2023-08-08T11:12:58;25.00;68.50
770;DHT22;368;48.698;9.116;2023-08-08T11:15:25;26.20;65.50
770;DHT22;368;48.698;9.116;2023-08-08T11:17:53;26.60;61.90
770;DHT22;368;48.698;9.116;2023-08-08T11:20:21;25.70;63.60
770;DHT22;368;48.698;9.116;2023-08-08T11:22:52;25.90;62.40
770;DHT22;368;48.698;9.116;2023-08-08T11:25:19;24.80;68.50
770;DHT22;368;48.698;9.116;2023-08-08T11:27:50;24.10;63.70
770;DHT22;368;48.698;9.116;2023-08-08T11:30:18;24.10;66.10
770;DHT22;368;48.698;9.116;2023-08-08T11:32:46;25.80;64.70
770;DHT22;368;48.698;9.116;2023-08-08T11:35:16;27.20;60.60
770;DHT22;368;48.698;9.116;2023-08-08T11:37:43;27.10;58.00
770;DHT22;368;48.698;9.116;2023-08-08T11:40:12;26.40;58.40
770;DHT22;368;48.698;9.116;2023-08-08T11:42:39;26.20;58.40
770;DHT22;368;48.698;9.116;2023-08-08T11:45:08;26.90;57.80
770;DHT22;368;48.698;9.116;2023-08-08T11:47:35;26.60;57.90
770;DHT22;368;48.698;9.116;2023-08-08T11:50:05;26.90;55.70
770;DHT22;368;48.698;9.116;2023-08-08T11:52:32;27.00;57.20
770;DHT22;368;48.698;9.116;2023-08-08T11:54:59;26.80;57.70
770;DHT22;368;48.698;9.116;2023-08-08T11:57:27;24.50;59.60
770;DHT22;368;48.698;9.116;2023-08-08T11:59:54;24.20;62.20
770;DHT22;368;48.698;9.116;2023-08-08T12:02:22;23.60;60.90
770;DHT22;368;48.698;9.116;2023-08-08T12:04:49;25.10;60.30
770;DHT22;368;48.698;9.116;2023-08-08T12:07:17;27.00;58.00
770;DHT22;368;48.698;9.116;2023-08-08T12:09:47;28.00;56.90
770;DHT22;368;48.698;9.116;2023-08-08T12:12:14;27.40;55.60
770;DHT22;368;48.698;9.116;2023-08-08T12:14:43;26.30;57.20
770;DHT22;368;48.698;9.116;2023-08-08T12:17:10;27.20;58.80
770;DHT22;368;48.698;9.116;2023-08-08T12:19:45;28.90;55.70
770;DHT22;368;48.698;9.116;2023-08-08T12:22:11;28.50;53.50
770;DHT22;368;48.698;9.116;2023-08-08T12:24:38;27.60;54.90
770;DHT22;368;48.698;9.116;2023-08-08T12:27:05;25.70;57.90
770;DHT22;368;48.698;9.116;2023-08-08T12:29:32;24.80;58.20
770;DHT22;368;48.698;9.116;2023-08-08T12:32:00;25.50;58.70
770;DHT22;368;48.698;9.116;2023-08-08T12:34:28;25.00;58.80
770;DHT22;368;48.698;9.116;2023-08-08T12:36:54;26.20;57.30
770;DHT22;368;48.698;9.116;2023-08-08T12:39:21;26.50;57.50
770;DHT22;368;48.698;9.116;2023-08-08T12:41:48;26.70;55.60
770;DHT22;368;48.698;9.116;2023-08-08T12:44:15;26.30;59.50
770;DHT22;368;48.698;9.116;2023-08-08T12:46:42;26.60;58.50
770;DHT22;368;48.698;9.116;2023-08-08T12:49:10;27.20;56.90
770;DHT22;368;48.698;9.116;2023-08-08T12:51:37;27.40;57.40
770;DHT22;368;48.698;9.116;2023-08-08T12:54:04;27.80;56.00
770;DHT22;368;48.698;9.116;2023-08-08T12:56:31;28.00;55.70
770;DHT22;368;48.698;9.116;2023-08-08T12:58:58;27.60;55.10
770;DHT22;368;48.698;9.116;2023-08-08T13:01:25;27.20;55.10
770;DHT22;368;48.698;9.116;2023-08-08T13:03:52;25.00;57.90
770;DHT22;368;48.698;9.116;2023-08-08T13:06:20;23.30;61.30
770;DHT22;368;48.698;9.116;2023-08-08T13:08:47;22.40;63.30
770;DHT22;368;48.698;9.116;2023-08-08T13:11:14;21.90;65.20
770;DHT22;368;48.698;9.116;2023-08-08T13:13:41;21.60;66.20
770;DHT22;368;48.698;9.116;2023-08-08T13:16:08;21.20;67.20
770;DHT22;368;48.698;9.116;2023-08-08T13:18:36;21.00;68.40
770;DHT22;368;48.698;9.116;2023-08-08T13:21:03;21.00;69.20
770;DHT22;368;48.698;9.116;2023-08-08T13:23:31;21.10;69.20
770;DHT22;368;48.698;9.116;2023-08-08T13:25:58;21.40;69.80
770;DHT22;368;48.698;9.116;2023-08-08T13:28:25;22.50;73.00
770;DHT22;368;48.698;9.116;2023-08-08T13:30:52;24.00;66.20
770;DHT22;368;48.698;9.116;2023-08-08T13:33:19;25.70;63.90
770;DHT22;368;48.698;9.116;2023-08-08T13:35:46;25.40;62.20
770;DHT22;368;48.698;9.116;2023-08-08T13:38:13;24.20;65.50
770;DHT22;368;48.698;9.116;2023-08-08T13:40:42;24.10;65.20
770;DHT22;368;48.698;9.116;2023-08-08T13:43:09;23.10;66.80
770;DHT22;368;48.698;9.116;2023-08-08T13:45:36;22.10;68.60
770;DHT22;368;48.698;9.116;2023-08-08T13:48:03;21.70;68.70
770;DHT22;368;48.698;9.116;2023-08-08T13:50:31;22.90;70.20
770;DHT22;368;48.698;9.116;2023-08-08T13:52:57;25.40;65.20
770;DHT22;368;48.698;9.116;2023-08-08T13:55:24;27.10;61.50
770;DHT22;368;48.698;9.116;2023-08-08T13:57:53;27.50;58.70
770;DHT22;368;48.698;9.116;2023-08-08T14:00:21;26.50;60.70
770;DHT22;368;48.698;9.116;2023-08-08T14:02:47;25.70;62.00
770;DHT22;368;48.698;9.116;2023-08-08T14:05:14;23.50;65.10
770;DHT22;368;48.698;9.116;2023-08-08T14:07:41;24.30;66.40
770;DHT22;368;48.698;9.116;2023-08-08T14:10:09;24.20;66.50
770;DHT22;368;48.698;9.116;2023-08-08T14:12:36;24.30;68.40
770;DHT22;368;48.698;9.116;2023-08-08T14:15:06;25.20;65.70
770;DHT22;368;48.698;9.116;2023-08-08T14:17:34;24.10;65.20
770;DHT22;368;48.698;9.116;2023-08-08T14:20:01;24.50;63.30
770;DHT22;368;48.698;9.116;2023-08-08T14:22:27;24.60;62.90
770;DHT22;368;48.698;9.116;2023-08-08T14:24:54;24.20;64.40
770;DHT22;368;48.698;9.116;2023-08-08T14:27:21;23.90;65.60
770;DHT22;368;48.698;9.116;2023-08-08T14:29:48;23.10;66.70
770;DHT22;368;48.698;9.116;2023-08-08T14:32:16;22.30;68.20
770;DHT22;368;48.698;9.116;2023-08-08T14:34:43;22.60;69.00
770;DHT22;368;48.698;9.116;2023-08-08T14:37:09;23.40;68.10
770;DHT22;368;48.698;9.116;2023-08-08T14:39:37;23.10;66.50
770;DHT22;368;48.698;9.116;2023-08-08T14:42:04;22.70;68.20
770;DHT22;368;48.698;9.116;2023-08-08T14:44:31;22.60;69.10
770;DHT22;368;48.698;9.116;2023-08-08T14:46:57;22.50;70.70
770;DHT22;368;48.698;9.116;2023-08-08T14:49:26;22.20;70.00
770;DHT22;368;48.698;9.116;2023-08-08T14:51:53;21.80;70.50
770;DHT22;368;48.698;9.116;2023-08-08T14:54:19;21.90;71.80
770;DHT22;368;48.698;9.116;2023-08-08T14:56:46;21.70;72.90
770;DHT22;368;48.698;9.116;2023-08-08T14:59:13;21.50;72.10
770;DHT22;368;48.698;9.116;2023-08-08T15:01:40;21.30;72.90
770;DHT22;368;48.698;9.116;2023-08-08T15:04:07;21.20;73.60
770;DHT22;368;48.698;9.116;2023-08-08T15:06:36;21.20;74.00
770;DHT22;368;48.698;9.116;2023-08-08T15:09:03;20.60;73.10
770;DHT22;368;48.698;9.116;2023-08-08T15:11:30;20.60;72.90
770;DHT22;368;48.698;9.116;2023-08-08T15:13:57;20.90;73.20
770;DHT22;368;48.698;9.116;2023-08-08T15:16:24;21.00;71.80
770;DHT22;368;48.698;9.116;2023-08-08T15:18:51;21.50;71.80
770;DHT22;368;48.698;9.116;2023-08-08T15:21:18;22.30;69.90
770;DHT22;368;48.698;9.116;2023-08-08T15:23:46;22.60;71.40
770;DHT22;368;48.698;9.116;2023-08-08T15:26:15;23.20;69.10
770;DHT22;368;48.698;9.116;2023-08-08T15:28:44;23.30;67.80
770;DHT22;368;48.698;9.116;2023-08-08T15:31:11;23.30;68.90
770;DHT22;368;48.698;9.116;2023-08-08T15:33:38;23.40;68.50
770;DHT22;368;48.698;9.116;2023-08-08T15:36:06;23.20;69.10
770;DHT22;368;48.698;9.116;2023-08-08T15:38:32;22.20;71.10
770;DHT22;368;48.698;9.116;2023-08-08T15:41:01;21.60;73.80
770;DHT22;368;48.698;9.116;2023-08-08T15:43:27;21.50;74.70
770;DHT22;368;48.698;9.116;2023-08-08T15:45:54;21.30;74.30
770;DHT22;368;48.698;9.116;2023-08-08T15:48:21;21.00;76.20
770;DHT22;368;48.698;9.116;2023-08-08T15:50:48;20.90;77.50
770;DHT22;368;48.698;9.116;2023-08-08T15:53:14;20.90;77.30
770;DHT22;368;48.698;9.116;2023-08-08T15:55:41;20.70;77.80
770;DHT22;368;48.698;9.116;2023-08-08T15:58:09;20.60;78.30
770;DHT22;368;48.698;9.116;2023-08-08T16:00:36;20.70;78.80
770;DHT22;368;48.698;9.116;2023-08-08T16:03:03;20.60;78.50
770;DHT22;368;48.698;9.116;2023-08-08T16:05:31;20.30;77.50
770;DHT22;368;48.698;9.116;2023-08-08T16:07:57;20.30;79.00
770;DHT22;368;48.698;9.116;2023-08-08T16:10:26;20.30;79.00
770;DHT22;368;48.698;9.116;2023-08-08T16:12:53;20.40;78.80
770;DHT22;368;48.698;9.116;2023-08-08T16:15:21;20.60;78.00
770;DHT22;368;48.698;9.116;2023-08-08T16:17:49;20.80;78.00
770;DHT22;368;48.698;9.116;2023-08-08T16:20:17;21.00;77.00
770;DHT22;368;48.698;9.116;2023-08-08T16:22:44;21.10;76.90
770;DHT22;368;48.698;9.116;2023-08-08T16:25:11;21.20;76.10
770;DHT22;368;48.698;9.116;2023-08-08T16:27:37;21.10;76.30
770;DHT22;368;48.698;9.116;2023-08-08T16:30:07;20.90;77.20
770;DHT22;368;48.698;9.116;2023-08-08T16:32:35;20.70;77.20
770;DHT22;368;48.698;9.116;2023-08-08T16:35:02;20.80;79.00